createdAt,value
2018-10-17T00:00:58.134Z,11.35
2018-10-17T00:03:26.298Z,12.03
2018-10-17T00:05:54.488Z,11.95
2018-10-17T00:08:22.670Z,11.83
2018-10-17T00:10:50.888Z,12.20
2018-10-17T00:13:19.014Z,12.80
2018-10-17T00:15:47.183Z,11.80
2018-10-17T00:18:15.351Z,12.37
2018-10-17T00:20:43.599Z,12.90
2018-10-17T00:23:12.327Z,12.47
2018-10-17T00:25:40.290Z,12.30
2018-10-17T00:28:08.499Z,12.70
2018-10-17T00:30:36.711Z,12.80
2018-10-17T00:33:05.067Z,12.28
2018-10-17T00:35:33.247Z,13.50
2018-10-17T00:38:01.419Z,13.10
2018-10-17T00:40:29.680Z,13.30
2018-10-17T00:42:57.823Z,13.40
2018-10-17T00:45:26.050Z,13.88
2018-10-17T00:47:54.206Z,13.08
2018-10-17T00:50:22.378Z,13.75
2018-10-17T00:52:50.559Z,13.75
2018-10-17T00:55:18.775Z,13.03
2018-10-17T00:57:46.954Z,13.80
2018-10-17T01:00:15.186Z,13.18
2018-10-17T01:02:43.390Z,12.90
2018-10-17T01:05:11.631Z,12.45
2018-10-17T01:07:39.834Z,12.58
2018-10-17T01:10:08.059Z,12.28
2018-10-17T01:12:36.262Z,14.03
2018-10-17T01:15:04.514Z,13.00
2018-10-17T01:17:32.694Z,13.10
2018-10-17T01:20:00.873Z,12.98
2018-10-17T01:22:29.106Z,12.75
2018-10-17T01:24:57.332Z,12.93
2018-10-17T01:27:25.514Z,12.47
2018-10-17T01:29:53.674Z,12.60
2018-10-17T01:32:21.826Z,13.10
2018-10-17T01:34:50.014Z,12.82
2018-10-17T01:37:18.260Z,13.30
2018-10-17T01:39:46.342Z,13.20
2018-10-17T01:42:14.511Z,12.33
2018-10-17T01:44:42.653Z,13.27
2018-10-17T01:47:10.855Z,12.47
2018-10-17T01:49:38.925Z,13.50
2018-10-17T01:52:07.086Z,13.38
2018-10-17T01:54:35.254Z,13.60
2018-10-17T01:57:03.502Z,13.15
2018-10-17T01:59:31.706Z,12.40
2018-10-17T02:01:59.855Z,12.07
2018-10-17T02:04:27.985Z,12.30
2018-10-17T02:06:56.193Z,12.75
2018-10-17T02:09:24.294Z,13.48
2018-10-17T02:11:52.433Z,13.83
2018-10-17T02:14:20.574Z,12.93
2018-10-17T02:16:48.726Z,13.33
2018-10-17T02:19:16.945Z,13.43
2018-10-17T02:21:45.095Z,13.28
2018-10-17T02:24:13.242Z,13.22
2018-10-17T02:26:41.405Z,13.05
2018-10-17T02:29:09.652Z,12.60
2018-10-17T02:31:37.770Z,12.18
2018-10-17T02:34:05.986Z,11.63
2018-10-17T02:36:34.214Z,12.60
2018-10-17T02:39:02.374Z,12.47
2018-10-17T02:41:30.570Z,12.37
2018-10-17T02:43:58.718Z,13.32
2018-10-17T02:46:26.949Z,12.28
2018-10-17T02:48:55.120Z,12.50
2018-10-17T02:51:23.235Z,13.20
2018-10-17T02:53:51.382Z,13.90
2018-10-17T02:56:19.537Z,13.85
2018-10-17T02:58:47.678Z,12.88
2018-10-17T03:01:15.908Z,13.40
2018-10-17T03:03:44.038Z,13.65
2018-10-17T03:06:12.213Z,13.58
2018-10-17T03:08:40.359Z,14.15
2018-10-17T03:11:08.560Z,12.85
2018-10-17T03:13:36.697Z,13.95
2018-10-17T03:16:04.983Z,13.13
2018-10-17T03:18:33.131Z,13.83
2018-10-17T03:21:01.272Z,13.60
2018-10-17T03:23:29.427Z,14.25
2018-10-17T03:25:57.574Z,13.90
2018-10-17T03:28:25.949Z,13.80
2018-10-17T03:30:54.172Z,14.43
2018-10-17T03:33:22.291Z,14.40
2018-10-17T03:35:50.566Z,13.63
2018-10-17T03:38:18.674Z,14.07
2018-10-17T03:40:46.875Z,13.17
2018-10-17T03:43:15.104Z,14.25
2018-10-17T03:45:43.198Z,13.10
2018-10-17T03:48:11.409Z,14.38
2018-10-17T03:50:39.566Z,14.13
2018-10-17T03:53:07.818Z,13.50
2018-10-17T03:55:35.949Z,13.08
2018-10-17T03:58:04.431Z,13.40
2018-10-17T04:00:32.587Z,14.10
2018-10-17T04:03:00.820Z,14.40
2018-10-17T04:05:28.913Z,13.13
2018-10-17T04:07:57.126Z,15.18
2018-10-17T04:10:25.316Z,14.90
2018-10-17T04:12:53.550Z,15.58
2018-10-17T04:15:21.676Z,14.68
2018-10-17T04:17:49.920Z,14.78
2018-10-17T04:20:18.107Z,15.40
2018-10-17T04:22:54.784Z,15.93
2018-10-17T04:25:22.918Z,15.87
2018-10-17T04:27:51.670Z,14.25
2018-10-17T04:30:19.880Z,14.28
2018-10-17T04:32:47.978Z,14.95
2018-10-17T04:35:16.265Z,14.75
2018-10-17T04:37:44.388Z,15.38
2018-10-17T04:40:12.602Z,13.60
2018-10-17T04:42:40.751Z,14.55
2018-10-17T04:45:09.530Z,13.60
2018-10-17T04:47:37.762Z,13.90
2018-10-17T04:50:07.141Z,14.50
2018-10-17T04:52:35.374Z,13.60
2018-10-17T04:55:03.595Z,12.90
2018-10-17T04:57:31.732Z,13.18
2018-10-17T04:59:59.879Z,13.70
2018-10-17T05:02:28.047Z,13.50
2018-10-17T05:04:56.286Z,14.15
2018-10-17T05:07:24.518Z,14.90
2018-10-17T05:09:52.617Z,14.30
2018-10-17T05:12:20.783Z,15.25
2018-10-17T05:14:48.960Z,16.23
2018-10-17T05:17:17.115Z,17.60
2018-10-17T05:19:45.290Z,15.20
2018-10-17T05:22:13.460Z,16.60
2018-10-17T05:24:41.606Z,15.70
2018-10-17T05:27:09.750Z,15.08
2018-10-17T05:29:37.925Z,15.40
2018-10-17T05:32:06.430Z,14.87
2018-10-17T05:34:34.599Z,14.35
2018-10-17T05:37:02.801Z,14.80
2018-10-17T05:39:30.934Z,16.42
2018-10-17T05:41:59.082Z,16.20
2018-10-17T05:44:27.301Z,15.70
2018-10-17T05:46:55.505Z,15.77
2018-10-17T05:49:23.660Z,16.20
2018-10-17T05:51:51.818Z,15.83
2018-10-17T05:54:19.978Z,17.13
2018-10-17T05:56:48.147Z,17.10
2018-10-17T05:59:16.325Z,16.30
2018-10-17T06:01:44.515Z,15.32
2018-10-17T06:04:12.663Z,15.38
2018-10-17T06:06:40.810Z,15.83
2018-10-17T06:09:10.337Z,15.10
2018-10-17T06:11:38.508Z,14.93
2018-10-17T06:14:06.717Z,17.40
2018-10-17T06:16:34.916Z,14.10
2018-10-17T06:19:03.139Z,14.20
2018-10-17T06:21:31.233Z,15.18
2018-10-17T06:23:59.408Z,17.10
2018-10-17T06:26:27.566Z,17.07
2018-10-17T06:28:55.748Z,17.20
2018-10-17T06:31:23.914Z,17.05
2018-10-17T06:33:52.151Z,18.10
2018-10-17T06:36:20.271Z,17.80
2018-10-17T06:38:48.449Z,17.67
2018-10-17T06:41:16.809Z,16.45
2018-10-17T06:43:45.752Z,17.73
2018-10-17T06:46:13.811Z,16.45
2018-10-17T06:48:41.970Z,16.73
2018-10-17T06:51:10.302Z,18.50
2018-10-17T06:53:38.403Z,20.00
2018-10-17T06:56:07.042Z,18.37
2018-10-17T06:58:35.235Z,18.50
2018-10-17T07:01:03.422Z,18.42
2018-10-17T07:03:31.554Z,17.87
2018-10-17T07:05:59.721Z,18.27
2018-10-17T07:08:27.912Z,18.70
2018-10-17T07:10:56.118Z,18.73
2018-10-17T07:13:24.212Z,17.32
2018-10-17T07:15:52.476Z,16.80
2018-10-17T07:18:20.583Z,16.90
2018-10-17T07:20:48.772Z,16.67
2018-10-17T07:23:17.019Z,16.55
2018-10-17T07:25:45.099Z,16.87
2018-10-17T07:28:13.263Z,18.30
2018-10-17T07:30:41.455Z,19.07
2018-10-17T07:33:09.673Z,18.95
2018-10-17T07:35:37.915Z,17.65
2018-10-17T07:38:06.017Z,18.23
2018-10-17T07:40:34.198Z,18.40
2018-10-17T07:43:02.387Z,17.80
2018-10-17T07:45:30.591Z,19.87
2018-10-17T07:47:58.708Z,17.90
2018-10-17T07:50:26.890Z,18.67
2018-10-17T07:52:55.072Z,19.77
2018-10-17T07:55:23.202Z,21.23
2018-10-17T07:57:51.375Z,20.85
2018-10-17T08:00:19.636Z,20.88
2018-10-17T08:02:47.724Z,19.27
2018-10-17T08:05:15.898Z,19.80
2018-10-17T08:07:44.051Z,18.57
2018-10-17T08:10:12.223Z,18.23
2018-10-17T08:12:40.457Z,18.03
2018-10-17T08:15:09.207Z,18.50
2018-10-17T08:17:37.394Z,18.87
2018-10-17T08:20:07.609Z,17.98
2018-10-17T08:22:35.782Z,18.20
2018-10-17T08:25:04.519Z,19.48
2018-10-17T08:27:32.753Z,19.45
2018-10-17T08:30:00.941Z,20.15
2018-10-17T08:32:29.070Z,19.95
2018-10-17T08:34:57.223Z,18.95
2018-10-17T08:37:26.080Z,19.73
2018-10-17T08:39:53.915Z,19.60
2018-10-17T08:42:22.064Z,19.75
2018-10-17T08:44:50.245Z,18.60
2018-10-17T08:47:18.379Z,19.63
2018-10-17T08:49:46.545Z,19.13
2018-10-17T08:52:14.682Z,19.67
2018-10-17T08:54:42.851Z,20.00
2018-10-17T08:57:11.006Z,19.97
2018-10-17T08:59:39.196Z,21.07
2018-10-17T09:02:07.703Z,20.97
2018-10-17T09:04:36.118Z,20.20
2018-10-17T09:07:04.274Z,22.63
2018-10-17T09:09:32.417Z,21.67
2018-10-17T09:12:00.614Z,18.40
2018-10-17T09:14:28.727Z,21.77
2018-10-17T09:16:56.882Z,20.80
2018-10-17T09:19:25.127Z,20.37
2018-10-17T09:21:53.418Z,19.53
2018-10-17T09:24:21.347Z,21.23
2018-10-17T10:03:48.226Z,21.93
2018-10-17T10:06:16.454Z,22.75
2018-10-17T10:08:44.530Z,20.93
2018-10-17T10:11:12.704Z,21.30
2018-10-17T10:13:40.838Z,19.10
2018-10-17T10:16:09.059Z,20.57
2018-10-17T10:18:37.154Z,21.03
2018-10-17T10:21:05.491Z,19.60
2018-10-17T10:23:33.657Z,19.73
2018-10-17T10:35:51.717Z,21.25
2018-10-17T10:38:19.878Z,21.17
2018-10-17T10:40:48.105Z,21.53
2018-10-17T10:43:16.523Z,20.00
2018-10-17T10:45:44.719Z,20.53
2018-10-17T10:48:12.983Z,21.85
2018-10-17T10:50:41.178Z,22.50
2018-10-17T10:53:09.350Z,21.42
2018-10-17T10:55:37.526Z,19.85
2018-10-17T10:58:05.765Z,21.77
2018-10-17T11:00:34.202Z,21.40
2018-10-17T11:03:02.372Z,19.12
2018-10-17T11:05:30.637Z,20.23
2018-10-17T11:07:58.663Z,20.05
2018-10-17T11:10:26.855Z,19.95
2018-10-17T11:12:55.062Z,21.37
2018-10-17T11:15:23.211Z,20.12
2018-10-17T11:17:51.483Z,20.53
2018-10-17T11:20:19.633Z,21.05
2018-10-17T11:22:47.813Z,20.35
2018-10-17T11:25:15.971Z,21.00
2018-10-17T11:27:44.348Z,20.30
2018-10-17T11:30:12.545Z,18.62
2018-10-17T11:32:40.877Z,17.07
2018-10-17T11:35:10.135Z,17.93
2018-10-17T11:37:38.695Z,17.50
2018-10-17T11:40:07.169Z,15.80
2018-10-17T11:42:35.290Z,15.80
2018-10-17T11:45:03.622Z,14.90
2018-10-17T11:47:31.729Z,15.03
2018-10-17T11:49:59.894Z,15.05
2018-10-17T11:52:28.058Z,15.80
2018-10-17T11:54:56.213Z,13.72
2018-10-17T11:57:24.373Z,13.50
2018-10-17T11:59:52.558Z,13.48
2018-10-17T12:02:20.747Z,14.70
2018-10-17T12:04:49.167Z,14.93
2018-10-17T12:07:17.080Z,13.73
2018-10-17T12:09:45.264Z,13.93
2018-10-17T12:12:13.554Z,13.80
2018-10-17T12:14:41.615Z,13.43
2018-10-17T12:17:09.778Z,15.30
2018-10-17T12:19:38.007Z,14.85
2018-10-17T12:22:06.118Z,13.70
2018-10-17T12:24:34.270Z,12.90
2018-10-17T12:27:02.482Z,12.07
2018-10-17T12:29:30.602Z,12.20
2018-10-17T12:31:58.800Z,10.72
2018-10-17T12:34:26.956Z,12.07
2018-10-17T12:36:55.147Z,12.07
2018-10-17T12:39:23.406Z,10.72
2018-10-17T12:41:51.487Z,12.97
2018-10-17T12:44:19.731Z,11.10
2018-10-17T12:46:47.829Z,10.53
2018-10-17T12:49:16.090Z,12.63
2018-10-17T12:51:44.170Z,13.20
2018-10-17T12:54:12.327Z,13.10
2018-10-17T12:56:40.497Z,12.05
2018-10-17T12:59:08.773Z,13.15
2018-10-17T13:01:36.879Z,14.63
2018-10-17T13:04:05.247Z,15.27
2018-10-17T13:06:33.411Z,14.10
2018-10-17T13:09:01.575Z,14.25
2018-10-17T13:11:29.804Z,13.85
2018-10-17T13:13:57.951Z,12.20
2018-10-17T13:16:26.120Z,12.00
2018-10-17T13:18:54.278Z,14.38
2018-10-17T13:21:22.471Z,15.65
2018-10-17T13:23:50.675Z,14.80
2018-10-17T13:26:18.834Z,14.33
2018-10-17T13:28:47.009Z,13.87
2018-10-17T13:31:15.220Z,10.38
2018-10-17T13:33:43.364Z,10.25
2018-10-17T13:36:11.514Z,11.43
2018-10-17T13:38:39.689Z,10.37
2018-10-17T13:41:07.899Z,12.63
2018-10-17T13:43:36.019Z,11.80
2018-10-17T13:46:04.174Z,10.65
2018-10-17T13:48:32.354Z,9.47
2018-10-17T13:51:00.510Z,9.10
2018-10-17T13:53:28.715Z,8.30
2018-10-17T13:55:56.855Z,9.35
2018-10-17T13:58:25.079Z,8.77
2018-10-17T14:00:53.204Z,7.85
2018-10-17T14:03:21.353Z,8.95
2018-10-17T14:05:49.594Z,7.80
2018-10-17T14:08:17.738Z,8.10
2018-10-17T14:10:45.892Z,9.20
2018-10-17T14:13:14.059Z,7.70
2018-10-17T14:15:42.227Z,8.03
2018-10-17T14:18:10.490Z,8.33
2018-10-17T14:20:38.554Z,7.50
2018-10-17T14:23:06.698Z,8.08
2018-10-17T14:25:34.871Z,6.97
2018-10-17T14:28:03.212Z,6.60
2018-10-17T14:30:31.379Z,7.33
2018-10-17T14:32:59.584Z,7.47
2018-10-17T14:35:27.737Z,8.23
2018-10-17T14:37:55.988Z,7.80
2018-10-17T14:40:24.054Z,8.50
2018-10-17T14:42:52.187Z,8.05
2018-10-17T14:45:20.368Z,8.00
2018-10-17T14:47:48.522Z,8.00
2018-10-17T14:50:16.696Z,7.00
2018-10-17T14:52:44.843Z,8.00
2018-10-17T14:55:13.010Z,8.00
2018-10-17T14:57:41.190Z,8.33
2018-10-17T15:00:12.538Z,7.67
2018-10-17T15:02:40.719Z,7.83
2018-10-17T15:05:09.420Z,8.90
2018-10-17T15:07:37.526Z,8.93
2018-10-17T15:10:05.938Z,8.80
2018-10-17T15:12:34.022Z,8.90
2018-10-17T15:15:02.224Z,8.95
2018-10-17T15:17:30.365Z,9.40
2018-10-17T15:19:58.528Z,10.00
2018-10-17T15:22:26.678Z,9.68
2018-10-17T15:24:54.848Z,9.60
2018-10-17T15:27:22.998Z,8.78
2018-10-17T15:29:51.192Z,8.43
2018-10-17T15:32:19.327Z,8.65
2018-10-17T15:34:47.516Z,7.90
2018-10-17T15:37:15.694Z,8.53
2018-10-17T15:39:43.859Z,9.20
2018-10-17T15:42:12.071Z,8.60
2018-10-17T15:44:40.198Z,8.05
2018-10-17T15:47:08.387Z,8.20
2018-10-17T15:49:36.534Z,8.70
2018-10-17T15:52:04.749Z,8.30
2018-10-17T15:54:32.902Z,7.77
2018-10-17T15:57:01.090Z,8.28
2018-10-17T15:59:29.595Z,7.30
2018-10-17T16:01:57.822Z,7.90
2018-10-17T16:04:25.991Z,8.00
2018-10-17T16:06:54.134Z,7.75
2018-10-17T16:09:22.322Z,7.73
2018-10-17T16:11:50.465Z,8.40
2018-10-17T16:14:18.713Z,8.05
2018-10-17T16:16:46.819Z,7.83
2018-10-17T16:19:14.996Z,8.20
2018-10-17T16:21:43.183Z,8.47
2018-10-17T16:24:11.448Z,9.00
2018-10-17T16:26:39.507Z,9.80
2018-10-17T16:29:07.689Z,11.50
2018-10-17T16:31:35.869Z,10.90
2018-10-17T16:34:04.027Z,10.53
2018-10-17T16:36:32.172Z,10.60
2018-10-17T16:39:00.358Z,9.30
2018-10-17T16:41:28.603Z,11.30
2018-10-17T16:43:56.793Z,11.50
2018-10-17T16:46:24.861Z,12.33
2018-10-17T16:48:53.036Z,12.13
2018-10-17T16:51:21.213Z,14.80
2018-10-17T16:53:49.377Z,14.13
2018-10-17T16:56:17.546Z,15.65
2018-10-17T16:58:45.825Z,15.83
2018-10-17T17:01:13.924Z,15.85
2018-10-17T17:03:42.071Z,15.05
2018-10-17T17:06:10.286Z,16.27
2018-10-17T17:08:38.418Z,22.73
2018-10-17T17:11:06.578Z,21.52
2018-10-17T17:13:34.779Z,24.75
2018-10-17T17:16:02.972Z,22.25
2018-10-17T17:18:31.134Z,23.80
2018-10-17T17:20:59.332Z,21.35
2018-10-17T17:23:27.435Z,23.60
2018-10-17T17:25:55.692Z,22.47
2018-10-17T17:28:23.843Z,22.82
2018-10-17T17:30:52.031Z,19.27
2018-10-17T17:33:20.189Z,19.77
2018-10-17T17:35:48.333Z,17.62
2018-10-17T17:38:16.494Z,18.00
2018-10-17T17:40:44.651Z,18.50
2018-10-17T17:43:12.791Z,16.57
2018-10-17T17:45:40.978Z,18.15
2018-10-17T17:48:09.127Z,17.67
2018-10-17T17:50:37.385Z,26.87
2018-10-17T17:53:05.526Z,31.27
2018-10-17T17:55:33.705Z,30.48
2018-10-17T17:58:01.967Z,31.40
2018-10-17T18:00:30.090Z,26.60
2018-10-17T18:02:58.246Z,24.52
2018-10-17T18:05:26.424Z,21.65
2018-10-17T18:07:54.573Z,20.90
2018-10-17T18:10:22.720Z,20.32
2018-10-17T18:12:50.879Z,18.17
2018-10-17T18:15:19.022Z,16.00
2018-10-17T18:17:47.171Z,14.70
2018-10-17T18:20:15.334Z,16.07
2018-10-17T18:22:43.516Z,14.47
2018-10-17T18:25:11.673Z,14.00
2018-10-17T18:27:41.175Z,14.60
2018-10-17T18:30:09.276Z,14.80
2018-10-17T18:32:37.462Z,15.93
2018-10-17T18:35:06.377Z,16.73
2018-10-17T18:37:34.533Z,17.20
2018-10-17T18:40:02.740Z,15.58
2018-10-17T18:42:30.913Z,14.73
2018-10-17T18:44:59.082Z,15.43
2018-10-17T18:47:27.519Z,22.32
2018-10-17T18:49:55.691Z,30.50
2018-10-17T18:52:24.131Z,33.28
2018-10-17T18:54:52.282Z,26.60
2018-10-17T18:57:20.444Z,28.52
2018-10-17T18:59:48.594Z,22.62
2018-10-17T19:02:23.505Z,29.13
2018-10-17T19:04:51.653Z,25.45
2018-10-17T19:07:19.818Z,33.02
2018-10-17T19:09:47.978Z,38.63
2018-10-17T19:12:16.116Z,38.17
2018-10-17T19:14:44.261Z,36.53
2018-10-17T19:17:12.422Z,40.80
2018-10-17T19:19:40.562Z,38.27
2018-10-17T19:22:08.726Z,33.98
2018-10-17T19:24:36.963Z,27.00
2018-10-17T19:27:05.680Z,20.92
2018-10-17T19:29:33.796Z,22.50
2018-10-17T19:32:01.948Z,21.77
2018-10-17T19:34:30.115Z,18.37
2018-10-17T19:36:58.355Z,18.60
2018-10-17T19:39:26.515Z,18.52
2018-10-17T19:41:54.732Z,18.45
2018-10-17T19:44:22.862Z,18.73
2018-10-17T19:46:51.018Z,16.32
2018-10-17T19:49:19.177Z,15.37
2018-10-17T19:51:47.334Z,15.47
2018-10-17T19:54:15.503Z,15.00
2018-10-17T19:56:43.662Z,15.50
2018-10-17T19:59:11.841Z,15.08
2018-10-17T20:01:40.001Z,14.03
2018-10-17T20:04:08.170Z,14.10
2018-10-17T20:06:36.335Z,14.63
2018-10-17T20:09:07.678Z,14.20
2018-10-17T20:11:35.882Z,14.30
2018-10-17T20:14:04.089Z,13.40
2018-10-17T20:16:32.182Z,14.33
2018-10-17T20:19:00.332Z,14.20
2018-10-17T20:21:28.514Z,13.40
2018-10-17T20:23:56.697Z,15.48
2018-10-17T20:26:24.866Z,16.30
2018-10-17T20:28:53.022Z,17.50
2018-10-17T20:31:21.188Z,21.37
2018-10-17T20:33:49.352Z,20.00
2018-10-17T20:36:17.498Z,17.43
2018-10-17T20:38:45.659Z,16.57
2018-10-17T20:41:13.834Z,16.20
2018-10-17T20:43:42.025Z,15.18
2018-10-17T20:46:10.179Z,14.45
2018-10-17T20:48:38.331Z,15.10
2018-10-17T20:51:06.487Z,14.20
2018-10-17T20:53:34.637Z,13.90
2018-10-17T20:56:02.879Z,14.63
2018-10-17T20:58:30.988Z,15.57
2018-10-17T21:00:59.146Z,14.75
2018-10-17T21:03:27.310Z,14.78
2018-10-17T21:05:55.504Z,14.00
2018-10-17T21:08:23.663Z,14.47
2018-10-17T21:10:51.823Z,14.93
2018-10-17T21:13:19.974Z,14.25
2018-10-17T21:15:48.130Z,13.60
2018-10-17T21:18:16.363Z,14.53
2018-10-17T21:20:44.462Z,14.40
2018-10-17T21:23:12.682Z,14.20
2018-10-17T21:25:40.825Z,14.95
2018-10-17T21:28:09.231Z,14.53
2018-10-17T21:30:37.377Z,13.88
2018-10-17T21:33:05.791Z,14.58
2018-10-17T21:35:33.994Z,14.77
2018-10-17T21:38:02.175Z,13.70
2018-10-17T21:40:30.318Z,14.58
2018-10-17T21:42:58.491Z,15.35
2018-10-17T21:45:26.751Z,15.08
2018-10-17T21:47:54.914Z,14.68
2018-10-17T21:50:23.058Z,15.00
2018-10-17T21:52:51.203Z,15.15
2018-10-17T21:55:19.354Z,14.20
2018-10-17T21:57:47.490Z,14.30
2018-10-17T22:00:15.646Z,15.48
2018-10-17T22:02:43.814Z,15.20
2018-10-17T22:05:12.054Z,14.35
2018-10-17T22:07:40.202Z,14.75
2018-10-17T22:10:09.036Z,14.50
2018-10-17T22:12:37.423Z,15.30
2018-10-17T22:15:06.957Z,16.20
2018-10-17T22:17:35.103Z,16.20
2018-10-17T22:20:03.333Z,15.80
2018-10-17T22:22:31.391Z,16.20
2018-10-17T22:24:59.541Z,16.70
2018-10-17T22:27:27.678Z,15.60
2018-10-17T22:29:55.871Z,15.55
2018-10-17T22:32:24.018Z,15.20
2018-10-17T22:34:52.238Z,14.38
2018-10-17T22:37:20.390Z,15.70
2018-10-17T22:39:48.544Z,16.55
2018-10-17T22:42:16.694Z,16.60
2018-10-17T22:44:44.863Z,16.47
2018-10-17T22:47:12.990Z,15.27
2018-10-17T22:49:41.139Z,16.23
2018-10-17T22:52:09.296Z,16.30
2018-10-17T22:54:37.479Z,16.20
2018-10-17T22:57:05.650Z,16.15
2018-10-17T22:59:33.795Z,16.37
2018-10-17T23:02:01.949Z,16.60
2018-10-17T23:04:30.093Z,16.17
2018-10-17T23:06:58.251Z,16.13
2018-10-17T23:09:26.415Z,16.97
2018-10-17T23:11:54.565Z,15.50
2018-10-17T23:14:22.739Z,16.27
2018-10-17T23:16:50.918Z,16.15
2018-10-17T23:19:19.078Z,15.10
2018-10-17T23:21:47.227Z,15.45
2018-10-17T23:24:15.370Z,17.73
2018-10-17T23:26:43.544Z,16.13
2018-10-17T23:29:11.694Z,16.20
2018-10-17T23:31:39.848Z,15.60
2018-10-17T23:34:07.986Z,16.77
2018-10-17T23:36:36.163Z,14.90
2018-10-17T23:39:06.695Z,14.07
2018-10-17T23:41:34.841Z,14.30
2018-10-17T23:44:03.068Z,13.53
2018-10-17T23:46:31.166Z,13.65
2018-10-17T23:48:59.342Z,14.07
2018-10-17T23:51:27.498Z,15.35
2018-10-17T23:53:55.644Z,14.20
2018-10-17T23:56:23.791Z,14.73
2018-10-17T23:58:51.942Z,15.70
